sensor_id;sensor_type;location;lat;lon;timestamp;temperature;humidity
16032;DHT22;8120;48.308;8.914;2023-01-24T00:01:15;-0.60;99.90
16032;DHT22;8120;48.308;8.914;2023-01-24T00:03:45;-0.60;99.90
16032;DHT22;8120;48.308;8.914;2023-01-24T00:06:13;-0.50;99.90
16032;DHT22;8120;48.308;8.914;2023-01-24T00:08:41;-0.60;99.90
16032;DHT22;8120;48.308;8.914;2023-01-24T00:11:11;-0.50;99.90
16032;DHT22;8120;48.308;8.914;2023-01-24T00:13:39;-0.50;99.90
16032;DHT22;8120;48.308;8.914;2023-01-24T00:16:10;-0.50;99.90
16032;DHT22;8120;48.308;8.914;2023-01-24T00:18:39;-0.50;99.90
16032;DHT22;8120;48.308;8.914;2023-01-24T00:21:10;-0.50;99.90
16032;DHT22;8120;48.308;8.914;2023-01-24T00:23:40;-0.50;99.90
16032;DHT22;8120;48.308;8.914;2023-01-24T00:26:09;-0.60;99.90
16032;DHT22;8120;48.308;8.914;2023-01-24T00:28:37;-0.50;99.90
16032;DHT22;8120;48.308;8.914;2023-01-24T00:31:05;-0.50;99.90
16032;DHT22;8120;48.308;8.914;2023-01-24T00:33:34;-0.60;99.90
16032;DHT22;8120;48.308;8.914;2023-01-24T00:36:02;-0.60;99.90
16032;DHT22;8120;48.308;8.914;2023-01-24T00:38:32;-0.60;99.90
16032;DHT22;8120;48.308;8.914;2023-01-24T00:41:00;-0.60;99.90
16032;DHT22;8120;48.308;8.914;2023-01-24T00:43:28;-0.60;99.90
16032;DHT22;8120;48.308;8.914;2023-01-24T00:45:56;-0.60;99.90
16032;DHT22;8120;48.308;8.914;2023-01-24T00:48:24;-0.60;99.90
16032;DHT22;8120;48.308;8.914;2023-01-24T00:50:52;-0.60;99.90
16032;DHT22;8120;48.308;8.914;2023-01-24T00:53:20;-0.60;99.90
16032;DHT22;8120;48.308;8.914;2023-01-24T00:55:49;-0.60;99.90
16032;DHT22;8120;48.308;8.914;2023-01-24T00:58:17;-0.60;99.90
16032;DHT22;8120;48.308;8.914;2023-01-24T01:00:45;-0.50;99.90
16032;DHT22;8120;48.308;8.914;2023-01-24T01:03:16;-0.60;99.90
16032;DHT22;8120;48.308;8.914;2023-01-24T01:05:44;-0.50;99.90
16032;DHT22;8120;48.308;8.914;2023-01-24T01:08:13;-0.60;99.90
16032;DHT22;8120;48.308;8.914;2023-01-24T01:10:40;-0.50;99.90
16032;DHT22;8120;48.308;8.914;2023-01-24T01:13:11;-0.50;99.90
16032;DHT22;8120;48.308;8.914;2023-01-24T01:15:40;-0.50;99.90
16032;DHT22;8120;48.308;8.914;2023-01-24T01:18:08;-0.60;99.90
16032;DHT22;8120;48.308;8.914;2023-01-24T01:20:36;-0.60;99.90
16032;DHT22;8120;48.308;8.914;2023-01-24T01:23:04;-0.50;99.90
16032;DHT22;8120;48.308;8.914;2023-01-24T01:25:32;-0.50;99.90
16032;DHT22;8120;48.308;8.914;2023-01-24T01:28:00;-0.60;99.90
16032;DHT22;8120;48.308;8.914;2023-01-24T01:30:29;-0.50;99.90
16032;DHT22;8120;48.308;8.914;2023-01-24T01:32:57;-0.50;99.90
16032;DHT22;8120;48.308;8.914;2023-01-24T01:35:25;-0.60;99.90
16032;DHT22;8120;48.308;8.914;2023-01-24T01:37:52;-0.60;99.90
16032;DHT22;8120;48.308;8.914;2023-01-24T01:40:20;-0.50;99.90
16032;DHT22;8120;48.308;8.914;2023-01-24T01:42:50;-0.50;99.90
16032;DHT22;8120;48.308;8.914;2023-01-24T01:45:38;-0.50;99.90
16032;DHT22;8120;48.308;8.914;2023-01-24T01:48:21;-0.60;99.90
16032;DHT22;8120;48.308;8.914;2023-01-24T01:50:58;-0.60;99.90
16032;DHT22;8120;48.308;8.914;2023-01-24T01:53:31;-0.60;99.90
16032;DHT22;8120;48.308;8.914;2023-01-24T01:56:02;-0.60;99.90
16032;DHT22;8120;48.308;8.914;2023-01-24T01:58:32;-0.70;99.90
16032;DHT22;8120;48.308;8.914;2023-01-24T02:01:02;-0.60;99.90
16032;DHT22;8120;48.308;8.914;2023-01-24T02:03:35;-0.60;99.90
16032;DHT22;8120;48.308;8.914;2023-01-24T02:06:15;-0.70;99.90
16032;DHT22;8120;48.308;8.914;2023-01-24T02:08:46;-0.70;99.90
16032;DHT22;8120;48.308;8.914;2023-01-24T02:11:16;-0.60;99.90
16032;DHT22;8120;48.308;8.914;2023-01-24T02:14:02;-0.70;99.90
16032;DHT22;8120;48.308;8.914;2023-01-24T02:16:48;-0.70;99.90
16032;DHT22;8120;48.308;8.914;2023-01-24T02:19:34;-0.60;99.90
16032;DHT22;8120;48.308;8.914;2023-01-24T02:22:12;-0.60;99.90
16032;DHT22;8120;48.308;8.914;2023-01-24T02:24:45;-0.60;99.90
16032;DHT22;8120;48.308;8.914;2023-01-24T02:27:19;-0.70;99.90
16032;DHT22;8120;48.308;8.914;2023-01-24T02:29:47;-0.70;99.90
16032;DHT22;8120;48.308;8.914;2023-01-24T02:32:15;-0.70;99.90
16032;DHT22;8120;48.308;8.914;2023-01-24T02:34:45;-0.70;99.90
16032;DHT22;8120;48.308;8.914;2023-01-24T02:37:13;-0.70;99.90
16032;DHT22;8120;48.308;8.914;2023-01-24T02:39:46;-0.60;99.90
16032;DHT22;8120;48.308;8.914;2023-01-24T02:42:20;-0.60;99.90
16032;DHT22;8120;48.308;8.914;2023-01-24T02:44:52;-0.60;99.90
16032;DHT22;8120;48.308;8.914;2023-01-24T02:47:21;-0.70;99.90
16032;DHT22;8120;48.308;8.914;2023-01-24T02:49:48;-0.60;99.90
16032;DHT22;8120;48.308;8.914;2023-01-24T02:52:16;-0.60;99.90
16032;DHT22;8120;48.308;8.914;2023-01-24T02:55:01;-0.60;99.90
16032;DHT22;8120;48.308;8.914;2023-01-24T02:57:31;-0.60;99.90
16032;DHT22;8120;48.308;8.914;2023-01-24T03:00:16;-0.70;99.90
16032;DHT22;8120;48.308;8.914;2023-01-24T03:02:44;-0.60;99.90
16032;DHT22;8120;48.308;8.914;2023-01-24T03:05:12;-0.60;99.90
16032;DHT22;8120;48.308;8.914;2023-01-24T03:07:40;-0.70;99.90
16032;DHT22;8120;48.308;8.914;2023-01-24T03:10:12;-0.60;99.90
16032;DHT22;8120;48.308;8.914;2023-01-24T03:12:42;-0.60;99.90
16032;DHT22;8120;48.308;8.914;2023-01-24T03:15:28;-0.60;99.90
16032;DHT22;8120;48.308;8.914;2023-01-24T03:18:13;-0.60;99.90
16032;DHT22;8120;48.308;8.914;2023-01-24T03:20:59;-0.60;99.90
16032;DHT22;8120;48.308;8.914;2023-01-24T03:23:44;-0.60;99.90
16032;DHT22;8120;48.308;8.914;2023-01-24T03:26:30;-0.60;99.90
16032;DHT22;8120;48.308;8.914;2023-01-24T03:29:16;-0.60;99.90
16032;DHT22;8120;48.308;8.914;2023-01-24T03:32:02;-0.60;99.90
16032;DHT22;8120;48.308;8.914;2023-01-24T03:34:47;-0.60;99.90
16032;DHT22;8120;48.308;8.914;2023-01-24T03:37:17;-0.60;99.90
16032;DHT22;8120;48.308;8.914;2023-01-24T03:40:07;-0.50;99.90
16032;DHT22;8120;48.308;8.914;2023-01-24T03:42:35;-0.60;99.90
16032;DHT22;8120;48.308;8.914;2023-01-24T03:45:17;-0.50;99.90
16032;DHT22;8120;48.308;8.914;2023-01-24T03:47:49;-0.50;99.90
16032;DHT22;8120;48.308;8.914;2023-01-24T03:50:32;-0.60;99.90
16032;DHT22;8120;48.308;8.914;2023-01-24T03:53:19;-0.60;99.90
16032;DHT22;8120;48.308;8.914;2023-01-24T03:55:51;-0.60;99.90
16032;DHT22;8120;48.308;8.914;2023-01-24T03:58:19;-0.50;99.90
16032;DHT22;8120;48.308;8.914;2023-01-24T04:00:49;-0.50;99.90
16032;DHT22;8120;48.308;8.914;2023-01-24T04:03:17;-0.60;99.90
16032;DHT22;8120;48.308;8.914;2023-01-24T04:05:46;-0.50;99.90
16032;DHT22;8120;48.308;8.914;2023-01-24T04:08:14;-0.50;99.90
16032;DHT22;8120;48.308;8.914;2023-01-24T04:10:42;-0.50;99.90
16032;DHT22;8120;48.308;8.914;2023-01-24T04:13:10;-0.60;99.90
16032;DHT22;8120;48.308;8.914;2023-01-24T04:15:38;-0.60;99.90
16032;DHT22;8120;48.308;8.914;2023-01-24T04:18:07;-0.50;99.90
16032;DHT22;8120;48.308;8.914;2023-01-24T04:20:36;-0.60;99.90
16032;DHT22;8120;48.308;8.914;2023-01-24T04:23:05;-0.60;99.90
16032;DHT22;8120;48.308;8.914;2023-01-24T04:25:34;-0.60;99.90
16032;DHT22;8120;48.308;8.914;2023-01-24T04:28:03;-0.70;99.90
16032;DHT22;8120;48.308;8.914;2023-01-24T04:30:31;-0.60;99.90
16032;DHT22;8120;48.308;8.914;2023-01-24T04:32:59;-0.70;99.90
16032;DHT22;8120;48.308;8.914;2023-01-24T04:35:29;-0.70;99.90
16032;DHT22;8120;48.308;8.914;2023-01-24T04:37:58;-0.60;99.90
16032;DHT22;8120;48.308;8.914;2023-01-24T04:40:26;-0.60;99.90
16032;DHT22;8120;48.308;8.914;2023-01-24T04:42:55;-0.60;99.90
16032;DHT22;8120;48.308;8.914;2023-01-24T04:45:23;-0.70;99.90
16032;DHT22;8120;48.308;8.914;2023-01-24T04:47:52;-0.60;99.90
16032;DHT22;8120;48.308;8.914;2023-01-24T04:50:20;-0.60;99.90
16032;DHT22;8120;48.308;8.914;2023-01-24T04:52:49;-0.70;99.90
16032;DHT22;8120;48.308;8.914;2023-01-24T04:55:17;-0.60;99.90
16032;DHT22;8120;48.308;8.914;2023-01-24T04:57:45;-0.60;99.90
16032;DHT22;8120;48.308;8.914;2023-01-24T05:00:13;-0.70;99.90
16032;DHT22;8120;48.308;8.914;2023-01-24T05:02:41;-0.60;99.90
16032;DHT22;8120;48.308;8.914;2023-01-24T05:05:09;-0.60;99.90
16032;DHT22;8120;48.308;8.914;2023-01-24T05:07:37;-0.50;99.90
16032;DHT22;8120;48.308;8.914;2023-01-24T05:10:08;-0.50;99.90
16032;DHT22;8120;48.308;8.914;2023-01-24T05:12:36;-0.60;99.90
16032;DHT22;8120;48.308;8.914;2023-01-24T05:15:04;-0.50;99.90
16032;DHT22;8120;48.308;8.914;2023-01-24T05:17:32;-0.50;99.90
16032;DHT22;8120;48.308;8.914;2023-01-24T05:20:01;-0.50;99.90
16032;DHT22;8120;48.308;8.914;2023-01-24T05:22:28;-0.50;99.90
16032;DHT22;8120;48.308;8.914;2023-01-24T05:24:56;-0.50;99.90
16032;DHT22;8120;48.308;8.914;2023-01-24T05:27:25;-0.50;99.90
16032;DHT22;8120;48.308;8.914;2023-01-24T05:29:53;-0.50;99.90
16032;DHT22;8120;48.308;8.914;2023-01-24T05:32:21;-0.40;99.90
16032;DHT22;8120;48.308;8.914;2023-01-24T05:34:49;-0.50;99.90
16032;DHT22;8120;48.308;8.914;2023-01-24T05:37:16;-0.50;99.90
16032;DHT22;8120;48.308;8.914;2023-01-24T05:39:44;-0.50;99.90
16032;DHT22;8120;48.308;8.914;2023-01-24T05:42:12;-0.50;99.90
16032;DHT22;8120;48.308;8.914;2023-01-24T05:44:41;-0.40;99.90
16032;DHT22;8120;48.308;8.914;2023-01-24T05:47:09;-0.50;99.90
16032;DHT22;8120;48.308;8.914;2023-01-24T05:49:37;-0.50;99.90
16032;DHT22;8120;48.308;8.914;2023-01-24T05:52:05;-0.40;99.90
16032;DHT22;8120;48.308;8.914;2023-01-24T05:54:32;-0.40;99.90
16032;DHT22;8120;48.308;8.914;2023-01-24T05:57:00;-0.30;99.90
16032;DHT22;8120;48.308;8.914;2023-01-24T05:59:28;-0.20;99.90
16032;DHT22;8120;48.308;8.914;2023-01-24T06:01:57;-0.30;99.90
16032;DHT22;8120;48.308;8.914;2023-01-24T06:04:25;-0.30;99.90
16032;DHT22;8120;48.308;8.914;2023-01-24T06:06:53;-0.30;99.90
16032;DHT22;8120;48.308;8.914;2023-01-24T06:09:21;-0.40;99.90
16032;DHT22;8120;48.308;8.914;2023-01-24T06:11:49;-0.30;99.90
16032;DHT22;8120;48.308;8.914;2023-01-24T06:14:17;-0.30;99.90
16032;DHT22;8120;48.308;8.914;2023-01-24T06:16:46;-0.30;99.90
16032;DHT22;8120;48.308;8.914;2023-01-24T06:19:16;-0.40;99.90
16032;DHT22;8120;48.308;8.914;2023-01-24T06:21:47;-0.30;99.90
16032;DHT22;8120;48.308;8.914;2023-01-24T06:24:18;-0.40;99.90
16032;DHT22;8120;48.308;8.914;2023-01-24T06:26:48;-0.40;99.90
16032;DHT22;8120;48.308;8.914;2023-01-24T06:29:17;-0.40;99.90
16032;DHT22;8120;48.308;8.914;2023-01-24T06:31:55;-0.40;99.90
16032;DHT22;8120;48.308;8.914;2023-01-24T06:34:38;-0.40;99.90
16032;DHT22;8120;48.308;8.914;2023-01-24T06:37:15;-0.50;99.90
16032;DHT22;8120;48.308;8.914;2023-01-24T06:39:48;-0.40;99.90
16032;DHT22;8120;48.308;8.914;2023-01-24T06:42:17;-0.40;99.90
16032;DHT22;8120;48.308;8.914;2023-01-24T06:44:46;-0.50;99.90
16032;DHT22;8120;48.308;8.914;2023-01-24T06:47:15;-0.50;99.90
16032;DHT22;8120;48.308;8.914;2023-01-24T06:49:44;-0.50;99.90
16032;DHT22;8120;48.308;8.914;2023-01-24T06:52:12;-0.40;99.90
16032;DHT22;8120;48.308;8.914;2023-01-24T06:54:40;-0.40;99.90
16032;DHT22;8120;48.308;8.914;2023-01-24T06:57:08;-0.50;99.90
16032;DHT22;8120;48.308;8.914;2023-01-24T06:59:36;-0.50;99.90
16032;DHT22;8120;48.308;8.914;2023-01-24T07:02:04;-0.40;99.90
16032;DHT22;8120;48.308;8.914;2023-01-24T07:04:32;-0.40;99.90
16032;DHT22;8120;48.308;8.914;2023-01-24T07:07:01;-0.40;99.90
16032;DHT22;8120;48.308;8.914;2023-01-24T07:09:29;-0.50;99.90
16032;DHT22;8120;48.308;8.914;2023-01-24T07:11:57;-0.50;99.90
16032;DHT22;8120;48.308;8.914;2023-01-24T07:14:25;-0.40;99.90
16032;DHT22;8120;48.308;8.914;2023-01-24T07:16:53;-0.40;99.90
16032;DHT22;8120;48.308;8.914;2023-01-24T07:19:22;-0.50;99.90
16032;DHT22;8120;48.308;8.914;2023-01-24T07:21:53;-0.50;99.90
16032;DHT22;8120;48.308;8.914;2023-01-24T07:24:26;-0.50;99.90
16032;DHT22;8120;48.308;8.914;2023-01-24T07:26:55;-0.40;99.90
16032;DHT22;8120;48.308;8.914;2023-01-24T07:29:23;-0.40;99.90
16032;DHT22;8120;48.308;8.914;2023-01-24T07:31:52;-0.40;99.90
16032;DHT22;8120;48.308;8.914;2023-01-24T07:34:20;-0.40;99.90
16032;DHT22;8120;48.308;8.914;2023-01-24T07:36:48;-0.40;99.90
16032;DHT22;8120;48.308;8.914;2023-01-24T07:39:16;-0.40;99.90
16032;DHT22;8120;48.308;8.914;2023-01-24T07:41:45;-0.40;99.90
16032;DHT22;8120;48.308;8.914;2023-01-24T07:44:13;-0.40;99.90
16032;DHT22;8120;48.308;8.914;2023-01-24T07:46:41;-0.40;99.90
16032;DHT22;8120;48.308;8.914;2023-01-24T07:49:09;-0.40;99.90
16032;DHT22;8120;48.308;8.914;2023-01-24T07:51:37;-0.30;99.90
16032;DHT22;8120;48.308;8.914;2023-01-24T07:54:06;-0.30;99.90
16032;DHT22;8120;48.308;8.914;2023-01-24T07:56:36;-0.30;99.90
16032;DHT22;8120;48.308;8.914;2023-01-24T07:59:05;-0.30;99.90
16032;DHT22;8120;48.308;8.914;2023-01-24T08:01:33;-0.30;99.90
16032;DHT22;8120;48.308;8.914;2023-01-24T08:04:01;-0.20;99.90
16032;DHT22;8120;48.308;8.914;2023-01-24T08:06:29;-0.30;99.90
16032;DHT22;8120;48.308;8.914;2023-01-24T08:08:57;-0.30;99.90
16032;DHT22;8120;48.308;8.914;2023-01-24T08:11:25;-0.30;99.90
16032;DHT22;8120;48.308;8.914;2023-01-24T08:13:52;-0.30;99.90
16032;DHT22;8120;48.308;8.914;2023-01-24T08:16:22;-0.30;99.90
16032;DHT22;8120;48.308;8.914;2023-01-24T08:18:52;-0.30;99.90
16032;DHT22;8120;48.308;8.914;2023-01-24T08:21:20;-0.30;99.90
16032;DHT22;8120;48.308;8.914;2023-01-24T08:23:48;-0.30;99.90
16032;DHT22;8120;48.308;8.914;2023-01-24T08:26:16;-0.30;99.90
16032;DHT22;8120;48.308;8.914;2023-01-24T08:28:44;-0.30;99.90
16032;DHT22;8120;48.308;8.914;2023-01-24T08:31:12;-0.30;99.90
16032;DHT22;8120;48.308;8.914;2023-01-24T08:33:41;-0.20;99.90
16032;DHT22;8120;48.308;8.914;2023-01-24T08:36:09;-0.20;99.90
16032;DHT22;8120;48.308;8.914;2023-01-24T08:38:37;-0.30;99.90
16032;DHT22;8120;48.308;8.914;2023-01-24T08:41:05;-0.30;99.90
16032;DHT22;8120;48.308;8.914;2023-01-24T08:43:35;-0.30;99.90
16032;DHT22;8120;48.308;8.914;2023-01-24T08:46:03;-0.30;99.90
16032;DHT22;8120;48.308;8.914;2023-01-24T08:48:31;-0.30;99.90
16032;DHT22;8120;48.308;8.914;2023-01-24T08:51:02;-0.20;99.90
16032;DHT22;8120;48.308;8.914;2023-01-24T08:53:30;-0.10;99.90
16032;DHT22;8120;48.308;8.914;2023-01-24T08:56:01;-0.10;99.90
16032;DHT22;8120;48.308;8.914;2023-01-24T08:58:28;0.10;99.90
16032;DHT22;8120;48.308;8.914;2023-01-24T09:00:58;0.10;99.90
16032;DHT22;8120;48.308;8.914;2023-01-24T09:03:26;0.20;99.90
16032;DHT22;8120;48.308;8.914;2023-01-24T09:05:56;0.10;99.90
16032;DHT22;8120;48.308;8.914;2023-01-24T09:08:25;0.10;99.90
16032;DHT22;8120;48.308;8.914;2023-01-24T09:10:53;0.00;99.90
16032;DHT22;8120;48.308;8.914;2023-01-24T09:13:21;0.10;99.90
16032;DHT22;8120;48.308;8.914;2023-01-24T09:15:49;0.20;99.90
16032;DHT22;8120;48.308;8.914;2023-01-24T09:18:19;0.20;99.90
16032;DHT22;8120;48.308;8.914;2023-01-24T09:20:47;0.10;99.90
16032;DHT22;8120;48.308;8.914;2023-01-24T09:23:14;0.10;99.90
16032;DHT22;8120;48.308;8.914;2023-01-24T09:25:49;0.10;99.90
16032;DHT22;8120;48.308;8.914;2023-01-24T09:28:17;0.10;99.90
16032;DHT22;8120;48.308;8.914;2023-01-24T09:30:47;0.10;99.90
16032;DHT22;8120;48.308;8.914;2023-01-24T09:33:16;0.10;99.90
16032;DHT22;8120;48.308;8.914;2023-01-24T09:35:51;0.00;99.90
16032;DHT22;8120;48.308;8.914;2023-01-24T09:38:19;0.10;99.90
16032;DHT22;8120;48.308;8.914;2023-01-24T09:40:56;0.10;99.90
16032;DHT22;8120;48.308;8.914;2023-01-24T09:43:40;0.10;99.90
16032;DHT22;8120;48.308;8.914;2023-01-24T09:46:26;0.10;99.90
16032;DHT22;8120;48.308;8.914;2023-01-24T09:49:02;0.10;99.90
16032;DHT22;8120;48.308;8.914;2023-01-24T09:51:34;0.20;99.90
16032;DHT22;8120;48.308;8.914;2023-01-24T09:54:03;0.10;99.90
16032;DHT22;8120;48.308;8.914;2023-01-24T09:56:36;0.20;99.90
16032;DHT22;8120;48.308;8.914;2023-01-24T09:59:13;0.20;99.90
16032;DHT22;8120;48.308;8.914;2023-01-24T10:01:46;0.20;99.90
16032;DHT22;8120;48.308;8.914;2023-01-24T10:04:17;0.30;99.90
16032;DHT22;8120;48.308;8.914;2023-01-24T10:07:04;0.30;99.90
16032;DHT22;8120;48.308;8.914;2023-01-24T10:09:43;0.30;99.70
16032;DHT22;8120;48.308;8.914;2023-01-24T10:12:28;0.20;99.90
16032;DHT22;8120;48.308;8.914;2023-01-24T10:15:10;0.20;99.90
16032;DHT22;8120;48.308;8.914;2023-01-24T10:17:55;0.30;99.90
16032;DHT22;8120;48.308;8.914;2023-01-24T10:20:46;0.30;99.90
16032;DHT22;8120;48.308;8.914;2023-01-24T10:23:18;0.40;99.90
16032;DHT22;8120;48.308;8.914;2023-01-24T10:25:53;0.40;99.60
16032;DHT22;8120;48.308;8.914;2023-01-24T10:28:27;0.30;99.40
16032;DHT22;8120;48.308;8.914;2023-01-24T10:31:03;0.30;99.90
16032;DHT22;8120;48.308;8.914;2023-01-24T10:33:35;0.30;99.50
16032;DHT22;8120;48.308;8.914;2023-01-24T10:36:10;0.30;99.90
16032;DHT22;8120;48.308;8.914;2023-01-24T10:38:39;0.40;99.50
16032;DHT22;8120;48.308;8.914;2023-01-24T10:41:19;0.30;99.40
16032;DHT22;8120;48.308;8.914;2023-01-24T10:43:53;0.30;99.40
16032;DHT22;8120;48.308;8.914;2023-01-24T10:46:41;0.30;99.90
16032;DHT22;8120;48.308;8.914;2023-01-24T10:49:14;0.50;99.50
16032;DHT22;8120;48.308;8.914;2023-01-24T10:52:06;0.60;98.00
16032;DHT22;8120;48.308;8.914;2023-01-24T10:54:42;0.60;97.40
16032;DHT22;8120;48.308;8.914;2023-01-24T10:57:33;0.60;96.80
16032;DHT22;8120;48.308;8.914;2023-01-24T11:00:17;0.60;96.90
16032;DHT22;8120;48.308;8.914;2023-01-24T11:02:47;0.60;96.20
16032;DHT22;8120;48.308;8.914;2023-01-24T11:05:18;0.60;96.80
16032;DHT22;8120;48.308;8.914;2023-01-24T11:07:48;0.50;96.90
16032;DHT22;8120;48.308;8.914;2023-01-24T11:10:21;0.50;97.30
16032;DHT22;8120;48.308;8.914;2023-01-24T11:12:51;0.50;97.30
16032;DHT22;8120;48.308;8.914;2023-01-24T11:15:25;0.60;97.10
16032;DHT22;8120;48.308;8.914;2023-01-24T11:17:56;0.60;96.40
16032;DHT22;8120;48.308;8.914;2023-01-24T11:20:29;0.70;96.30
16032;DHT22;8120;48.308;8.914;2023-01-24T11:23:12;0.70;95.50
16032;DHT22;8120;48.308;8.914;2023-01-24T11:25:51;0.70;95.50
16032;DHT22;8120;48.308;8.914;2023-01-24T11:28:23;0.60;96.00
16032;DHT22;8120;48.308;8.914;2023-01-24T11:30:54;0.60;96.40
16032;DHT22;8120;48.308;8.914;2023-01-24T11:33:40;0.70;95.50
16032;DHT22;8120;48.308;8.914;2023-01-24T11:36:26;0.70;95.60
16032;DHT22;8120;48.308;8.914;2023-01-24T11:38:58;0.70;96.10
16032;DHT22;8120;48.308;8.914;2023-01-24T11:41:30;0.90;95.40
16032;DHT22;8120;48.308;8.914;2023-01-24T11:44:32;1.00;93.80
16032;DHT22;8120;48.308;8.914;2023-01-24T11:47:09;0.90;94.00
16032;DHT22;8120;48.308;8.914;2023-01-24T11:50:09;0.90;93.40
16032;DHT22;8120;48.308;8.914;2023-01-24T11:52:56;1.00;92.60
16032;DHT22;8120;48.308;8.914;2023-01-24T11:55:43;1.00;92.10
16032;DHT22;8120;48.308;8.914;2023-01-24T11:58:38;1.00;93.40
16032;DHT22;8120;48.308;8.914;2023-01-24T12:01:14;1.00;91.90
16032;DHT22;8120;48.308;8.914;2023-01-24T12:04:07;1.10;92.40
16032;DHT22;8120;48.308;8.914;2023-01-24T12:06:44;1.10;92.20
16032;DHT22;8120;48.308;8.914;2023-01-24T12:09:19;1.20;91.60
16032;DHT22;8120;48.308;8.914;2023-01-24T12:11:54;1.30;91.60
16032;DHT22;8120;48.308;8.914;2023-01-24T12:14:55;1.30;91.00
16032;DHT22;8120;48.308;8.914;2023-01-24T12:17:45;1.30;90.70
16032;DHT22;8120;48.308;8.914;2023-01-24T12:20:43;1.20;91.10
16032;DHT22;8120;48.308;8.914;2023-01-24T12:23:19;1.20;90.90
16032;DHT22;8120;48.308;8.914;2023-01-24T12:25:50;1.20;90.60
16032;DHT22;8120;48.308;8.914;2023-01-24T12:28:26;1.20;91.40
16032;DHT22;8120;48.308;8.914;2023-01-24T12:30:57;1.30;90.90
16032;DHT22;8120;48.308;8.914;2023-01-24T12:33:31;1.20;90.50
16032;DHT22;8120;48.308;8.914;2023-01-24T12:36:05;1.10;90.80
16032;DHT22;8120;48.308;8.914;2023-01-24T12:38:43;1.10;91.50
16032;DHT22;8120;48.308;8.914;2023-01-24T12:41:18;1.30;90.80
16032;DHT22;8120;48.308;8.914;2023-01-24T12:43:59;1.20;91.70
16032;DHT22;8120;48.308;8.914;2023-01-24T12:46:33;1.10;92.00
16032;DHT22;8120;48.308;8.914;2023-01-24T12:49:11;1.20;91.20
16032;DHT22;8120;48.308;8.914;2023-01-24T12:51:47;1.10;91.80
16032;DHT22;8120;48.308;8.914;2023-01-24T12:54:25;1.00;92.80
16032;DHT22;8120;48.308;8.914;2023-01-24T12:56:59;1.00;92.80
16032;DHT22;8120;48.308;8.914;2023-01-24T12:59:30;1.20;92.60
16032;DHT22;8120;48.308;8.914;2023-01-24T13:02:44;1.20;91.60
16032;DHT22;8120;48.308;8.914;2023-01-24T13:05:28;1.30;90.80
16032;DHT22;8120;48.308;8.914;2023-01-24T13:08:10;1.20;91.40
16032;DHT22;8120;48.308;8.914;2023-01-24T13:10:50;1.10;91.20
16032;DHT22;8120;48.308;8.914;2023-01-24T13:13:23;1.10;91.80
16032;DHT22;8120;48.308;8.914;2023-01-24T13:16:02;1.00;92.80
16032;DHT22;8120;48.308;8.914;2023-01-24T13:18:45;1.10;92.60
16032;DHT22;8120;48.308;8.914;2023-01-24T13:21:21;1.10;92.80
16032;DHT22;8120;48.308;8.914;2023-01-24T13:24:04;1.10;92.10
16032;DHT22;8120;48.308;8.914;2023-01-24T13:26:54;1.00;92.40
16032;DHT22;8120;48.308;8.914;2023-01-24T13:29:35;1.00;92.40
16032;DHT22;8120;48.308;8.914;2023-01-24T13:32:10;1.10;93.40
16032;DHT22;8120;48.308;8.914;2023-01-24T13:34:42;1.00;92.80
16032;DHT22;8120;48.308;8.914;2023-01-24T13:37:18;1.00;93.30
16032;DHT22;8120;48.308;8.914;2023-01-24T13:39:59;1.00;93.60
16032;DHT22;8120;48.308;8.914;2023-01-24T13:42:33;0.90;93.80
16032;DHT22;8120;48.308;8.914;2023-01-24T13:51:31;0.90;93.50
16032;DHT22;8120;48.308;8.914;2023-01-24T13:54:00;0.90;93.60
16032;DHT22;8120;48.308;8.914;2023-01-24T13:56:29;0.80;93.80
16032;DHT22;8120;48.308;8.914;2023-01-24T13:58:59;0.80;94.60
16032;DHT22;8120;48.308;8.914;2023-01-24T14:01:27;0.90;94.70
16032;DHT22;8120;48.308;8.914;2023-01-24T14:03:57;0.70;95.30
16032;DHT22;8120;48.308;8.914;2023-01-24T14:06:27;0.70;96.10
16032;DHT22;8120;48.308;8.914;2023-01-24T14:09:14;0.70;96.10
16032;DHT22;8120;48.308;8.914;2023-01-24T14:11:59;0.60;96.10
16032;DHT22;8120;48.308;8.914;2023-01-24T14:17:45;0.70;96.90
16032;DHT22;8120;48.308;8.914;2023-01-24T14:20:36;0.70;96.20
16032;DHT22;8120;48.308;8.914;2023-01-24T14:23:14;0.60;96.70
16032;DHT22;8120;48.308;8.914;2023-01-24T14:25:50;0.60;96.80
16032;DHT22;8120;48.308;8.914;2023-01-24T14:28:31;0.60;97.60
16032;DHT22;8120;48.308;8.914;2023-01-24T14:31:02;0.50;97.50
16032;DHT22;8120;48.308;8.914;2023-01-24T14:33:41;0.60;97.60
16032;DHT22;8120;48.308;8.914;2023-01-24T14:36:28;0.60;97.50
16032;DHT22;8120;48.308;8.914;2023-01-24T14:39:19;0.50;98.00
16032;DHT22;8120;48.308;8.914;2023-01-24T14:41:50;0.50;98.60
16032;DHT22;8120;48.308;8.914;2023-01-24T14:44:22;0.50;98.80
16032;DHT22;8120;48.308;8.914;2023-01-24T14:46:57;0.50;98.10
16032;DHT22;8120;48.308;8.914;2023-01-24T14:49:31;0.50;98.70
16032;DHT22;8120;48.308;8.914;2023-01-24T14:52:00;0.50;98.80
16032;DHT22;8120;48.308;8.914;2023-01-24T14:54:44;0.40;99.30
16032;DHT22;8120;48.308;8.914;2023-01-24T14:57:21;0.40;99.60
16032;DHT22;8120;48.308;8.914;2023-01-24T15:00:02;0.50;99.80
16032;DHT22;8120;48.308;8.914;2023-01-24T15:02:31;0.50;99.70
16032;DHT22;8120;48.308;8.914;2023-01-24T15:05:01;0.50;99.40
16032;DHT22;8120;48.308;8.914;2023-01-24T15:07:28;0.50;99.90
16032;DHT22;8120;48.308;8.914;2023-01-24T15:09:56;0.50;99.80
16032;DHT22;8120;48.308;8.914;2023-01-24T15:12:30;0.50;99.60
16032;DHT22;8120;48.308;8.914;2023-01-24T15:15:03;0.50;99.50
16032;DHT22;8120;48.308;8.914;2023-01-24T15:17:32;0.50;99.80
16032;DHT22;8120;48.308;8.914;2023-01-24T15:20:08;0.40;99.90
16032;DHT22;8120;48.308;8.914;2023-01-24T15:22:39;0.40;99.90
16032;DHT22;8120;48.308;8.914;2023-01-24T15:25:18;0.40;99.90
16032;DHT22;8120;48.308;8.914;2023-01-24T15:27:46;0.50;99.90
16032;DHT22;8120;48.308;8.914;2023-01-24T15:30:20;0.40;99.90
16032;DHT22;8120;48.308;8.914;2023-01-24T15:32:48;0.40;99.90
16032;DHT22;8120;48.308;8.914;2023-01-24T15:35:34;0.40;99.90
16032;DHT22;8120;48.308;8.914;2023-01-24T15:38:10;0.40;99.90
16032;DHT22;8120;48.308;8.914;2023-01-24T15:40:59;0.50;99.90
16032;DHT22;8120;48.308;8.914;2023-01-24T15:43:32;0.40;99.90
16032;DHT22;8120;48.308;8.914;2023-01-24T15:46:22;0.40;99.90
16032;DHT22;8120;48.308;8.914;2023-01-24T15:49:24;0.40;99.90
16032;DHT22;8120;48.308;8.914;2023-01-24T15:52:19;0.50;99.90
16032;DHT22;8120;48.308;8.914;2023-01-24T15:54:51;0.50;99.90
16032;DHT22;8120;48.308;8.914;2023-01-24T15:57:24;0.50;99.90
16032;DHT22;8120;48.308;8.914;2023-01-24T15:59:55;0.50;99.90
16032;DHT22;8120;48.308;8.914;2023-01-24T16:02:27;0.50;99.90
16032;DHT22;8120;48.308;8.914;2023-01-24T16:04:55;0.50;99.90
16032;DHT22;8120;48.308;8.914;2023-01-24T16:07:22;0.50;99.40
16032;DHT22;8120;48.308;8.914;2023-01-24T16:09:50;0.50;99.40
16032;DHT22;8120;48.308;8.914;2023-01-24T16:12:22;0.50;99.80
16032;DHT22;8120;48.308;8.914;2023-01-24T16:14:53;0.50;99.90
16032;DHT22;8120;48.308;8.914;2023-01-24T16:17:36;0.50;99.80
16032;DHT22;8120;48.308;8.914;2023-01-24T16:20:16;0.50;98.80
16032;DHT22;8120;48.308;8.914;2023-01-24T16:22:44;0.50;98.80
16032;DHT22;8120;48.308;8.914;2023-01-24T16:25:13;0.40;99.60
16032;DHT22;8120;48.308;8.914;2023-01-24T16:27:42;0.50;99.90
16032;DHT22;8120;48.308;8.914;2023-01-24T16:30:19;0.50;99.70
16032;DHT22;8120;48.308;8.914;2023-01-24T16:32:49;0.50;99.30
16032;DHT22;8120;48.308;8.914;2023-01-24T16:35:17;0.50;99.30
16032;DHT22;8120;48.308;8.914;2023-01-24T16:37:45;0.50;99.40
16032;DHT22;8120;48.308;8.914;2023-01-24T16:40:15;0.50;99.90